sensor_id;sensor_type;location;lat;lon;timestamp;temperature;humidity
16867;DHT22;8550;52.596;13.320;2023-04-15T00:02:22;8.60;99.90
16867;DHT22;8550;52.596;13.320;2023-04-15T00:07:24;8.60;99.90
16867;DHT22;8550;52.596;13.320;2023-04-15T00:12:27;8.60;99.90
16867;DHT22;8550;52.596;13.320;2023-04-15T00:17:30;8.60;99.90
16867;DHT22;8550;52.596;13.320;2023-04-15T00:22:32;8.60;99.90
16867;DHT22;8550;52.596;13.320;2023-04-15T00:27:34;8.60;99.90
16867;DHT22;8550;52.596;13.320;2023-04-15T00:32:38;8.50;99.90
16867;DHT22;8550;52.596;13.320;2023-04-15T00:37:40;8.60;99.90
16867;DHT22;8550;52.596;13.320;2023-04-15T00:42:42;8.50;99.90
16867;DHT22;8550;52.596;13.320;2023-04-15T00:47:45;8.60;99.90
16867;DHT22;8550;52.596;13.320;2023-04-15T00:52:47;8.50;99.90
16867;DHT22;8550;52.596;13.320;2023-04-15T00:57:49;8.50;99.90
16867;DHT22;8550;52.596;13.320;2023-04-15T01:02:52;8.40;99.90
16867;DHT22;8550;52.596;13.320;2023-04-15T01:07:54;8.50;99.90
16867;DHT22;8550;52.596;13.320;2023-04-15T01:12:56;8.50;99.90
16867;DHT22;8550;52.596;13.320;2023-04-15T01:18:01;8.40;99.90
16867;DHT22;8550;52.596;13.320;2023-04-15T01:23:03;8.50;99.90
16867;DHT22;8550;52.596;13.320;2023-04-15T01:28:07;8.50;99.90
16867;DHT22;8550;52.596;13.320;2023-04-15T01:33:10;8.60;99.90
16867;DHT22;8550;52.596;13.320;2023-04-15T01:38:12;8.50;99.90
16867;DHT22;8550;52.596;13.320;2023-04-15T01:43:15;8.50;99.90
16867;DHT22;8550;52.596;13.320;2023-04-15T01:48:17;8.60;99.90
16867;DHT22;8550;52.596;13.320;2023-04-15T01:53:19;8.60;99.90
16867;DHT22;8550;52.596;13.320;2023-04-15T01:58:22;8.50;99.90
16867;DHT22;8550;52.596;13.320;2023-04-15T02:03:24;8.50;99.90
16867;DHT22;8550;52.596;13.320;2023-04-15T02:08:27;8.60;99.90
16867;DHT22;8550;52.596;13.320;2023-04-15T02:13:30;8.50;99.90
16867;DHT22;8550;52.596;13.320;2023-04-15T02:18:32;8.60;99.90
16867;DHT22;8550;52.596;13.320;2023-04-15T02:23:34;8.50;99.90
16867;DHT22;8550;52.596;13.320;2023-04-15T02:28:37;8.70;99.90
16867;DHT22;8550;52.596;13.320;2023-04-15T02:33:39;8.70;99.90
16867;DHT22;8550;52.596;13.320;2023-04-15T02:38:41;8.70;99.90
16867;DHT22;8550;52.596;13.320;2023-04-15T02:43:44;8.70;99.90
16867;DHT22;8550;52.596;13.320;2023-04-15T02:48:46;8.60;99.90
16867;DHT22;8550;52.596;13.320;2023-04-15T02:53:49;8.60;99.90
16867;DHT22;8550;52.596;13.320;2023-04-15T02:58:52;8.60;99.90
16867;DHT22;8550;52.596;13.320;2023-04-15T03:03:55;8.60;99.90
16867;DHT22;8550;52.596;13.320;2023-04-15T03:08:57;8.70;99.90
16867;DHT22;8550;52.596;13.320;2023-04-15T03:14:01;8.70;99.90
16867;DHT22;8550;52.596;13.320;2023-04-15T03:19:03;8.70;99.90
16867;DHT22;8550;52.596;13.320;2023-04-15T03:24:05;8.70;99.90
16867;DHT22;8550;52.596;13.320;2023-04-15T03:29:08;8.70;99.90
16867;DHT22;8550;52.596;13.320;2023-04-15T03:34:10;8.70;99.90
16867;DHT22;8550;52.596;13.320;2023-04-15T03:39:12;8.70;99.90
16867;DHT22;8550;52.596;13.320;2023-04-15T03:44:16;8.70;99.90
16867;DHT22;8550;52.596;13.320;2023-04-15T03:49:18;8.80;99.90
16867;DHT22;8550;52.596;13.320;2023-04-15T03:54:22;8.80;99.90
16867;DHT22;8550;52.596;13.320;2023-04-15T03:59:25;8.90;99.90
16867;DHT22;8550;52.596;13.320;2023-04-15T04:04:27;8.90;99.90
16867;DHT22;8550;52.596;13.320;2023-04-15T04:09:29;8.90;99.90
16867;DHT22;8550;52.596;13.320;2023-04-15T04:14:32;8.90;99.90
16867;DHT22;8550;52.596;13.320;2023-04-15T04:19:34;8.90;99.90
16867;DHT22;8550;52.596;13.320;2023-04-15T04:24:36;8.90;99.90
16867;DHT22;8550;52.596;13.320;2023-04-15T04:29:40;8.90;99.90
16867;DHT22;8550;52.596;13.320;2023-04-15T04:34:42;9.00;99.90
16867;DHT22;8550;52.596;13.320;2023-04-15T04:39:43;9.00;99.90
16867;DHT22;8550;52.596;13.320;2023-04-15T04:44:47;9.00;99.90
16867;DHT22;8550;52.596;13.320;2023-04-15T04:49:49;9.00;99.90
16867;DHT22;8550;52.596;13.320;2023-04-15T04:54:51;9.10;99.90
16867;DHT22;8550;52.596;13.320;2023-04-15T04:59:55;9.00;99.90
16867;DHT22;8550;52.596;13.320;2023-04-15T05:04:57;9.10;99.90
16867;DHT22;8550;52.596;13.320;2023-04-15T05:09:59;9.10;99.90
16867;DHT22;8550;52.596;13.320;2023-04-15T05:15:03;9.20;99.90
16867;DHT22;8550;52.596;13.320;2023-04-15T05:20:06;9.20;99.90
16867;DHT22;8550;52.596;13.320;2023-04-15T05:25:08;9.20;99.90
16867;DHT22;8550;52.596;13.320;2023-04-15T05:30:12;9.30;99.90
16867;DHT22;8550;52.596;13.320;2023-04-15T05:35:13;9.30;99.90
16867;DHT22;8550;52.596;13.320;2023-04-15T05:40:15;9.40;99.90
16867;DHT22;8550;52.596;13.320;2023-04-15T05:45:19;9.50;99.90
16867;DHT22;8550;52.596;13.320;2023-04-15T05:50:21;9.50;99.90
16867;DHT22;8550;52.596;13.320;2023-04-15T05:55:23;9.50;99.90
16867;DHT22;8550;52.596;13.320;2023-04-15T06:00:26;9.60;99.90
16867;DHT22;8550;52.596;13.320;2023-04-15T06:05:28;9.70;99.90
16867;DHT22;8550;52.596;13.320;2023-04-15T06:10:30;9.90;99.90
16867;DHT22;8550;52.596;13.320;2023-04-15T06:15:37;10.10;99.90
16867;DHT22;8550;52.596;13.320;2023-04-15T06:20:39;10.10;99.90
16867;DHT22;8550;52.596;13.320;2023-04-15T06:25:41;10.10;99.90
16867;DHT22;8550;52.596;13.320;2023-04-15T06:30:45;10.20;99.90
16867;DHT22;8550;52.596;13.320;2023-04-15T06:35:46;10.30;99.90
16867;DHT22;8550;52.596;13.320;2023-04-15T06:40:49;10.50;99.90
16867;DHT22;8550;52.596;13.320;2023-04-15T06:45:52;10.70;99.90
16867;DHT22;8550;52.596;13.320;2023-04-15T06:50:54;10.80;99.90
16867;DHT22;8550;52.596;13.320;2023-04-15T06:55:57;11.00;99.90
16867;DHT22;8550;52.596;13.320;2023-04-15T07:01:01;11.20;99.90
16867;DHT22;8550;52.596;13.320;2023-04-15T07:06:03;11.30;99.90
16867;DHT22;8550;52.596;13.320;2023-04-15T07:11:06;11.20;99.90
16867;DHT22;8550;52.596;13.320;2023-04-15T07:16:09;11.10;99.90
16867;DHT22;8550;52.596;13.320;2023-04-15T07:21:11;11.00;99.90
16867;DHT22;8550;52.596;13.320;2023-04-15T07:26:13;11.00;99.90
16867;DHT22;8550;52.596;13.320;2023-04-15T07:31:16;11.20;99.90
16867;DHT22;8550;52.596;13.320;2023-04-15T07:36:19;11.30;99.90
16867;DHT22;8550;52.596;13.320;2023-04-15T07:41:21;11.30;99.90
16867;DHT22;8550;52.596;13.320;2023-04-15T07:46:24;11.40;99.90
16867;DHT22;8550;52.596;13.320;2023-04-15T07:51:26;11.60;99.90
16867;DHT22;8550;52.596;13.320;2023-04-15T07:56:29;11.60;99.90
16867;DHT22;8550;52.596;13.320;2023-04-15T08:01:33;11.40;99.90
16867;DHT22;8550;52.596;13.320;2023-04-15T08:06:35;11.40;99.90
16867;DHT22;8550;52.596;13.320;2023-04-15T08:11:40;11.60;99.90
16867;DHT22;8550;52.596;13.320;2023-04-15T08:16:43;11.70;99.90
16867;DHT22;8550;52.596;13.320;2023-04-15T08:21:45;11.50;99.90
16867;DHT22;8550;52.596;13.320;2023-04-15T08:26:47;11.50;99.90
16867;DHT22;8550;52.596;13.320;2023-04-15T08:31:50;11.30;99.90
16867;DHT22;8550;52.596;13.320;2023-04-15T08:36:53;11.20;99.90
16867;DHT22;8550;52.596;13.320;2023-04-15T08:41:59;11.20;99.90
16867;DHT22;8550;52.596;13.320;2023-04-15T08:47:06;11.30;99.90
16867;DHT22;8550;52.596;13.320;2023-04-15T08:52:08;11.60;99.90
16867;DHT22;8550;52.596;13.320;2023-04-15T08:57:11;12.00;99.90
16867;DHT22;8550;52.596;13.320;2023-04-15T09:02:14;11.70;99.90
16867;DHT22;8550;52.596;13.320;2023-04-15T09:07:16;11.80;99.90
16867;DHT22;8550;52.596;13.320;2023-04-15T09:12:18;11.80;99.90
16867;DHT22;8550;52.596;13.320;2023-04-15T09:17:22;11.80;99.90
16867;DHT22;8550;52.596;13.320;2023-04-15T09:22:31;11.50;99.90
16867;DHT22;8550;52.596;13.320;2023-04-15T09:27:35;11.70;99.90
16867;DHT22;8550;52.596;13.320;2023-04-15T09:32:48;11.70;99.90
16867;DHT22;8550;52.596;13.320;2023-04-15T09:37:51;11.70;99.90
16867;DHT22;8550;52.596;13.320;2023-04-15T09:42:54;11.90;99.90
16867;DHT22;8550;52.596;13.320;2023-04-15T09:47:59;11.80;99.90
16867;DHT22;8550;52.596;13.320;2023-04-15T09:53:02;11.90;99.90
16867;DHT22;8550;52.596;13.320;2023-04-15T09:58:08;11.70;99.90
16867;DHT22;8550;52.596;13.320;2023-04-15T10:03:12;11.90;99.90
16867;DHT22;8550;52.596;13.320;2023-04-15T10:08:17;11.80;99.90
16867;DHT22;8550;52.596;13.320;2023-04-15T10:13:23;11.70;99.90
16867;DHT22;8550;52.596;13.320;2023-04-15T10:18:27;11.80;99.90
16867;DHT22;8550;52.596;13.320;2023-04-15T10:23:31;11.80;99.90
16867;DHT22;8550;52.596;13.320;2023-04-15T10:28:34;11.70;99.90
16867;DHT22;8550;52.596;13.320;2023-04-15T10:33:38;11.80;99.90
16867;DHT22;8550;52.596;13.320;2023-04-15T10:38:41;11.80;99.90
16867;DHT22;8550;52.596;13.320;2023-04-15T10:43:51;12.00;99.90
16867;DHT22;8550;52.596;13.320;2023-04-15T10:48:54;12.00;99.90
16867;DHT22;8550;52.596;13.320;2023-04-15T10:53:58;11.90;99.90
16867;DHT22;8550;52.596;13.320;2023-04-15T10:59:04;11.80;99.90
16867;DHT22;8550;52.596;13.320;2023-04-15T11:04:08;12.00;99.90
16867;DHT22;8550;52.596;13.320;2023-04-15T11:09:30;11.90;99.90
16867;DHT22;8550;52.596;13.320;2023-04-15T11:14:32;12.00;99.90
16867;DHT22;8550;52.596;13.320;2023-04-15T11:19:37;11.90;99.90
16867;DHT22;8550;52.596;13.320;2023-04-15T11:24:46;12.00;99.90
16867;DHT22;8550;52.596;13.320;2023-04-15T11:29:50;12.20;99.90
16867;DHT22;8550;52.596;13.320;2023-04-15T11:34:53;12.00;99.90
16867;DHT22;8550;52.596;13.320;2023-04-15T11:39:55;11.90;99.90
16867;DHT22;8550;52.596;13.320;2023-04-15T11:45:06;11.80;99.90
16867;DHT22;8550;52.596;13.320;2023-04-15T11:50:17;11.90;99.90
16867;DHT22;8550;52.596;13.320;2023-04-15T11:55:20;11.90;99.90
16867;DHT22;8550;52.596;13.320;2023-04-15T12:00:23;11.70;99.90
16867;DHT22;8550;52.596;13.320;2023-04-15T12:05:26;11.50;99.90
16867;DHT22;8550;52.596;13.320;2023-04-15T12:10:30;11.60;99.90
16867;DHT22;8550;52.596;13.320;2023-04-15T12:15:36;11.60;99.90
16867;DHT22;8550;52.596;13.320;2023-04-15T12:20:44;11.80;99.90
16867;DHT22;8550;52.596;13.320;2023-04-15T12:25:50;11.70;99.90
16867;DHT22;8550;52.596;13.320;2023-04-15T12:30:52;11.70;99.90
16867;DHT22;8550;52.596;13.320;2023-04-15T12:35:55;11.90;99.90
16867;DHT22;8550;52.596;13.320;2023-04-15T12:40:57;12.00;99.90
16867;DHT22;8550;52.596;13.320;2023-04-15T12:45:59;12.20;99.90
16867;DHT22;8550;52.596;13.320;2023-04-15T12:51:03;12.30;99.90
16867;DHT22;8550;52.596;13.320;2023-04-15T12:56:05;12.20;99.90
16867;DHT22;8550;52.596;13.320;2023-04-15T13:01:07;12.30;99.90
16867;DHT22;8550;52.596;13.320;2023-04-15T13:06:11;12.20;99.90
16867;DHT22;8550;52.596;13.320;2023-04-15T13:11:13;12.10;99.90
16867;DHT22;8550;52.596;13.320;2023-04-15T13:16:15;12.10;99.90
16867;DHT22;8550;52.596;13.320;2023-04-15T13:21:18;12.00;99.90
16867;DHT22;8550;52.596;13.320;2023-04-15T13:26:20;11.90;99.90
16867;DHT22;8550;52.596;13.320;2023-04-15T13:31:22;11.80;99.90
16867;DHT22;8550;52.596;13.320;2023-04-15T13:36:26;11.60;99.90
16867;DHT22;8550;52.596;13.320;2023-04-15T13:41:28;11.60;99.90
16867;DHT22;8550;52.596;13.320;2023-04-15T13:46:30;11.60;99.90
16867;DHT22;8550;52.596;13.320;2023-04-15T13:51:33;11.70;99.90
16867;DHT22;8550;52.596;13.320;2023-04-15T13:56:36;11.70;99.90
16867;DHT22;8550;52.596;13.320;2023-04-15T14:01:38;11.70;99.90
16867;DHT22;8550;52.596;13.320;2023-04-15T14:06:42;11.60;99.90
16867;DHT22;8550;52.596;13.320;2023-04-15T14:11:44;11.60;99.90
16867;DHT22;8550;52.596;13.320;2023-04-15T14:16:46;11.50;99.90
16867;DHT22;8550;52.596;13.320;2023-04-15T14:21:50;11.50;99.90
16867;DHT22;8550;52.596;13.320;2023-04-15T14:26:52;11.50;99.90
16867;DHT22;8550;52.596;13.320;2023-04-15T14:31:57;11.50;99.90
16867;DHT22;8550;52.596;13.320;2023-04-15T14:37:01;11.40;99.90
16867;DHT22;8550;52.596;13.320;2023-04-15T14:42:04;11.40;99.90
16867;DHT22;8550;52.596;13.320;2023-04-15T14:47:07;11.40;99.90
16867;DHT22;8550;52.596;13.320;2023-04-15T14:52:11;11.50;99.90
16867;DHT22;8550;52.596;13.320;2023-04-15T14:57:13;11.40;99.90
16867;DHT22;8550;52.596;13.320;2023-04-15T15:02:15;11.50;99.90
16867;DHT22;8550;52.596;13.320;2023-04-15T15:07:19;11.50;99.90
16867;DHT22;8550;52.596;13.320;2023-04-15T15:12:20;11.50;99.90
16867;DHT22;8550;52.596;13.320;2023-04-15T15:17:23;11.50;99.90
16867;DHT22;8550;52.596;13.320;2023-04-15T15:22:26;11.40;99.90
16867;DHT22;8550;52.596;13.320;2023-04-15T15:27:28;11.40;99.90
16867;DHT22;8550;52.596;13.320;2023-04-15T15:32:30;11.40;99.90
16867;DHT22;8550;52.596;13.320;2023-04-15T15:37:34;11.60;99.90
16867;DHT22;8550;52.596;13.320;2023-04-15T15:42:36;11.60;99.90
16867;DHT22;8550;52.596;13.320;2023-04-15T15:47:39;11.60;99.90
16867;DHT22;8550;52.596;13.320;2023-04-15T15:52:43;11.70;99.90
16867;DHT22;8550;52.596;13.320;2023-04-15T15:57:45;11.60;99.90
16867;DHT22;8550;52.596;13.320;2023-04-15T16:02:47;11.70;99.90
16867;DHT22;8550;52.596;13.320;2023-04-15T16:07:50;11.60;99.90
16867;DHT22;8550;52.596;13.320;2023-04-15T16:12:53;11.50;99.90
16867;DHT22;8550;52.596;13.320;2023-04-15T16:17:55;11.40;99.90
16867;DHT22;8550;52.596;13.320;2023-04-15T16:22:58;11.30;99.90
16867;DHT22;8550;52.596;13.320;2023-04-15T16:28:01;11.30;99.90
16867;DHT22;8550;52.596;13.320;2023-04-15T16:33:03;11.30;99.90
16867;DHT22;8550;52.596;13.320;2023-04-15T16:38:06;11.20;99.90
16867;DHT22;8550;52.596;13.320;2023-04-15T16:43:08;11.20;99.90
16867;DHT22;8550;52.596;13.320;2023-04-15T16:48:10;11.20;99.90
16867;DHT22;8550;52.596;13.320;2023-04-15T16:53:15;11.20;99.90
16867;DHT22;8550;52.596;13.320;2023-04-15T16:58:18;11.20;99.90
16867;DHT22;8550;52.596;13.320;2023-04-15T17:03:20;11.10;99.90
16867;DHT22;8550;52.596;13.320;2023-04-15T17:08:25;11.10;99.90
16867;DHT22;8550;52.596;13.320;2023-04-15T17:13:27;11.10;99.90
16867;DHT22;8550;52.596;13.320;2023-04-15T17:18:28;11.00;99.90
16867;DHT22;8550;52.596;13.320;2023-04-15T17:23:32;11.00;99.90
16867;DHT22;8550;52.596;13.320;2023-04-15T17:28:35;11.00;99.90
16867;DHT22;8550;52.596;13.320;2023-04-15T17:33:37;11.00;99.90
16867;DHT22;8550;52.596;13.320;2023-04-15T17:38:43;10.90;99.90
16867;DHT22;8550;52.596;13.320;2023-04-15T17:43:45;10.90;99.90
16867;DHT22;8550;52.596;13.320;2023-04-15T17:48:47;10.90;99.90
16867;DHT22;8550;52.596;13.320;2023-04-15T17:53:50;10.90;99.90
16867;DHT22;8550;52.596;13.320;2023-04-15T17:58:52;10.90;99.90
16867;DHT22;8550;52.596;13.320;2023-04-15T18:03:54;10.90;99.90
16867;DHT22;8550;52.596;13.320;2023-04-15T18:08:57;10.90;99.90
16867;DHT22;8550;52.596;13.320;2023-04-15T18:14:01;10.80;99.90
16867;DHT22;8550;52.596;13.320;2023-04-15T18:19:03;10.80;99.90
16867;DHT22;8550;52.596;13.320;2023-04-15T18:24:07;10.80;99.90
16867;DHT22;8550;52.596;13.320;2023-04-15T18:29:09;10.70;99.90
16867;DHT22;8550;52.596;13.320;2023-04-15T18:34:11;10.80;99.90
16867;DHT22;8550;52.596;13.320;2023-04-15T18:39:15;10.80;99.90
16867;DHT22;8550;52.596;13.320;2023-04-15T18:44:17;10.70;99.90
16867;DHT22;8550;52.596;13.320;2023-04-15T18:49:18;10.80;99.90
16867;DHT22;8550;52.596;13.320;2023-04-15T18:54:22;10.70;99.90
16867;DHT22;8550;52.596;13.320;2023-04-15T18:59:25;10.70;99.90
16867;DHT22;8550;52.596;13.320;2023-04-15T19:04:27;10.70;99.90
16867;DHT22;8550;52.596;13.320;2023-04-15T19:09:31;10.70;99.90
16867;DHT22;8550;52.596;13.320;2023-04-15T19:14:33;10.70;99.90
16867;DHT22;8550;52.596;13.320;2023-04-15T19:19:35;10.60;99.90
16867;DHT22;8550;52.596;13.320;2023-04-15T19:24:39;10.60;99.90
16867;DHT22;8550;52.596;13.320;2023-04-15T19:29:41;10.60;99.90
16867;DHT22;8550;52.596;13.320;2023-04-15T19:34:43;10.60;99.90
16867;DHT22;8550;52.596;13.320;2023-04-15T19:39:47;10.60;99.90
16867;DHT22;8550;52.596;13.320;2023-04-15T19:44:49;10.60;99.90
16867;DHT22;8550;52.596;13.320;2023-04-15T19:49:51;10.60;99.90
16867;DHT22;8550;52.596;13.320;2023-04-15T19:54:54;10.50;99.90
16867;DHT22;8550;52.596;13.320;2023-04-15T19:59:56;10.50;99.90
16867;DHT22;8550;52.596;13.320;2023-04-15T20:04:58;10.50;99.90
16867;DHT22;8550;52.596;13.320;2023-04-15T20:10:02;10.50;99.90
16867;DHT22;8550;52.596;13.320;2023-04-15T20:15:05;10.50;99.90
16867;DHT22;8550;52.596;13.320;2023-04-15T20:20:08;10.50;99.90
16867;DHT22;8550;52.596;13.320;2023-04-15T20:25:11;10.50;99.90
16867;DHT22;8550;52.596;13.320;2023-04-15T20:30:13;10.60;99.90
16867;DHT22;8550;52.596;13.320;2023-04-15T20:35:17;10.50;99.90
16867;DHT22;8550;52.596;13.320;2023-04-15T20:40:20;10.60;99.90
16867;DHT22;8550;52.596;13.320;2023-04-15T20:45:22;10.50;99.90
16867;DHT22;8550;52.596;13.320;2023-04-15T20:50:24;10.50;99.90
16867;DHT22;8550;52.596;13.320;2023-04-15T20:55:27;10.50;99.90
16867;DHT22;8550;52.596;13.320;2023-04-15T21:00:29;10.60;99.90
16867;DHT22;8550;52.596;13.320;2023-04-15T21:05:32;10.50;99.90
16867;DHT22;8550;52.596;13.320;2023-04-15T21:10:36;10.50;99.90
16867;DHT22;8550;52.596;13.320;2023-04-15T21:15:39;10.60;99.90
16867;DHT22;8550;52.596;13.320;2023-04-15T21:20:41;10.50;99.90
16867;DHT22;8550;52.596;13.320;2023-04-15T21:25:44;10.50;99.90
16867;DHT22;8550;52.596;13.320;2023-04-15T21:30:46;10.50;99.90
16867;DHT22;8550;52.596;13.320;2023-04-15T21:35:48;10.50;99.90
16867;DHT22;8550;52.596;13.320;2023-04-15T21:40:52;10.50;99.90
16867;DHT22;8550;52.596;13.320;2023-04-15T21:45:54;10.50;99.90
16867;DHT22;8550;52.596;13.320;2023-04-15T21:51:06;10.50;99.90
16867;DHT22;8550;52.596;13.320;2023-04-15T21:56:09;10.40;99.90
16867;DHT22;8550;52.596;13.320;2023-04-15T22:01:11;10.40;99.90
16867;DHT22;8550;52.596;13.320;2023-04-15T22:06:15;10.40;99.90
16867;DHT22;8550;52.596;13.320;2023-04-15T22:11:19;10.40;99.90
16867;DHT22;8550;52.596;13.320;2023-04-15T22:16:26;10.50;99.90
16867;DHT22;8550;52.596;13.320;2023-04-15T22:21:33;10.50;99.90
16867;DHT22;8550;52.596;13.320;2023-04-15T22:26:37;10.40;99.90
16867;DHT22;8550;52.596;13.320;2023-04-15T22:31:41;10.50;99.90
16867;DHT22;8550;52.596;13.320;2023-04-15T22:36:43;10.40;99.90
16867;DHT22;8550;52.596;13.320;2023-04-15T22:41:48;10.50;99.90
16867;DHT22;8550;52.596;13.320;2023-04-15T22:46:55;10.50;99.90
16867;DHT22;8550;52.596;13.320;2023-04-15T22:51:57;10.50;99.90
16867;DHT22;8550;52.596;13.320;2023-04-15T22:57:00;10.50;99.90
16867;DHT22;8550;52.596;13.320;2023-04-15T23:02:02;10.50;99.90
16867;DHT22;8550;52.596;13.320;2023-04-15T23:07:04;10.40;99.90
16867;DHT22;8550;52.596;13.320;2023-04-15T23:12:08;10.50;99.90
16867;DHT22;8550;52.596;13.320;2023-04-15T23:17:10;10.40;99.90
16867;DHT22;8550;52.596;13.320;2023-04-15T23:22:11;10.40;99.90
16867;DHT22;8550;52.596;13.320;2023-04-15T23:27:15;10.40;99.90
16867;DHT22;8550;52.596;13.320;2023-04-15T23:32:19;10.30;99.90
16867;DHT22;8550;52.596;13.320;2023-04-15T23:37:23;10.30;99.90
16867;DHT22;8550;52.596;13.320;2023-04-15T23:42:26;10.40;99.90
16867;DHT22;8550;52.596;13.320;2023-04-15T23:47:35;10.30;99.90
16867;DHT22;8550;52.596;13.320;2023-04-15T23:52:38;10.30;99.90
16867;DHT22;8550;52.596;13.320;2023-04-15T23:57:42;10.20;99.90
